Aérodrome :
LOGIN :

S'inscrire | Disclaimer

   EN    FR    IT 

 










Légende :    VFR   VFR Marginal   IFR   IFR Intensif   IFR Très Intensif
Visi : 
Plafond : 
>= 8 km
>= 3000ft
5 à 8 km
1000 à 3000 ft
1500m à 5 km
500 à 1000 ft
800 à 1500m
200 à 500 ft
< 800m
< 200 ft
Symboles :   Orages  Brouillard  Fortes neiges  Fortes précipitations  Vent > 20 kt
SIGMETs :   Divers  Orages  Givrage  Turbulence  Onde Orograph.  Cendres Volcan.






- Altitude de l'aérodrome : 299 ft
- Code IATA : EDM


LFRI - La Roche Sur Yon - Les Ajoncs

DERNIER METAR :
  • 172100Z AUTO 24006KT CAVOK 07/04 Q1029 NOSIG

METARs EXPIRÉS :
  • 172030Z AUTO 25006KT 9999 FEW030 07/04 Q1028 NOSIG
  • 172000Z AUTO 24005KT 210V270 9999 FEW035 07/04 Q1028 TEMPO 4000 SHRA SCT020CB
  • 171930Z AUTO 25007KT CAVOK 07/04 Q1028 TEMPO 4000 SHRA SCT020CB
  • 171900Z AUTO 25009KT CAVOK 08/04 Q1027 TEMPO 4000 SHRA SCT020CB
  • 171830Z AUTO 26011KT CAVOK 08/04 Q1027 TEMPO 4000 SHRA SCT020CB

TAF TAF LFRI
Valide du 17 à 18h jusqu'au 18 à 18h UTC


171700Z 1718/1818 25009KT 9999 SCT030
TEMPO 1718/1721 4000 SHRA SCT020CB
TEMPO 1810/1818 4000 SHRA SCT030TCU



MET'MAP, la Météo Aéronautique d'un coup d'oeil ! - Copyright ORBIFLY Décembre 2007 - Disclaimer

ORBIFLY MET'MAP TEAM :

Programmation & Développement : Alexandra Zaïnal
Sur une idée originale de : Baudouin d'Aumeries
Assistance à la programmation : Marc-Olivier Méhu
Soutien technique & logistique : Manuel Goepfert

Contact : metmap@orbifly.com




SOURCES & CREDITS :

   NOAA